Aérodrome :
LOGIN :

S'inscrire | Disclaimer

   EN    FR    IT 

 










Légende :    VFR   VFR Marginal   IFR   IFR Intensif   IFR Très Intensif
Visi : 
Plafond : 
>= 8 km
>= 3000ft
5 à 8 km
1000 à 3000 ft
1500m à 5 km
500 à 1000 ft
800 à 1500m
200 à 500 ft
< 800m
< 200 ft
Symboles :   Orages  Brouillard  Fortes neiges  Fortes précipitations  Vent > 20 kt
SIGMETs :   Divers  Orages  Givrage  Turbulence  Onde Orograph.  Cendres Volcan.






- Altitude de l'aérodrome : 138 ft
- Code IATA : RLG


ETNL - Rostock Laage

DERNIER METAR :
  • 202120Z 20014G24KT 9999 -RA BKN023 07/04 Q1004 WHT

METARs EXPIRÉS :
  • 202047Z 20015KT 9999 SCT040 BKN055 08/04 Q1004 BLU
  • 202020Z 20013G29KT 9999 FEW043 BKN058 08/04 Q1005 BLU
  • 201920Z 19012KT 9999 FEW030 BKN053 07/04 Q1006 BLU
  • 201848Z 19012KT 9999 BKN050 07/04 Q1006 BLU

TAF TAF ETNL
Valide du 20 à 18h jusqu'au 21 à 06h UTC


201710Z 2018/2106 18015G25KT 9999 NSW SCT012 BKN040
TEMPO 2020/2023 20015G30KT 5000 -RA BKN010 BKN030
TEMPO 2023/2105 27020G45KT 3000 +RA BKN005 BY ETGL



MET'MAP, la Météo Aéronautique d'un coup d'oeil ! - Copyright ORBIFLY Décembre 2007 - Disclaimer

ORBIFLY MET'MAP TEAM :

Programmation & Développement : Alexandra Zaïnal
Sur une idée originale de : Baudouin d'Aumeries
Assistance à la programmation : Marc-Olivier Méhu
Soutien technique & logistique : Manuel Goepfert

Contact : metmap@orbifly.com




SOURCES & CREDITS :

   NOAA